Time;durP1;ratioP1;P1;durP2;ratioP2;P2;SDS_P1;SDS_P2;PMS_P1;PMS_P2;Temp;Humidity;BMP_temperature;BMP_pressure;BME280_temperature;BME280_humidity;BME280_pressure;Samples;Min_cycle;Max_cycle;Signal;HPM_P1;HPM_P2
2022/01/27 00:07:41;;;;;;;43.97;15.07;;;;;;;;;;6201291;23;20377;-93
2022/01/27 00:12:42;;;;;;;57.25;17.33;;;;;;;;;;6196995;23;20017;-93
2022/01/27 00:15:10;;;;;;;44.15;15.93;;;;;;;;;;6184617;23;20084;-93
2022/01/27 00:17:41;;;;;;;46.30;18.15;;;;;;;;;;6184261;23;20032;-92
2022/01/27 00:20:06;;;;;;;41.28;14.88;;;;;;;;;;6184972;23;20024;-93
2022/01/27 00:22:32;;;;;;;47.42;15.75;;;;;;;;;;6185224;23;20001;-93
2022/01/27 00:24:57;;;;;;;43.55;15.82;;;;;;;;;;6180181;23;20018;-93
2022/01/27 00:27:22;;;;;;;46.42;16.55;;;;;;;;;;6181113;23;20000;-93
2022/01/27 00:29:48;;;;;;;50.97;17.13;;;;;;;;;;6185002;23;20028;-93
2022/01/27 00:32:13;;;;;;;47.38;17.42;;;;;;;;;;6184591;23;20032;-93
2022/01/27 00:34:38;;;;;;;43.35;17.60;;;;;;;;;;6184763;23;20437;-93
2022/01/27 00:37:04;;;;;;;44.10;16.10;;;;;;;;;;6184636;23;20001;-93
2022/01/27 00:39:29;;;;;;;49.20;19.15;;;;;;;;;;6200963;23;19993;-93
2022/01/27 00:41:54;;;;;;;47.90;19.35;;;;;;;;;;6188419;23;19999;-93
2022/01/27 00:44:19;;;;;;;51.83;18.40;;;;;;;;;;6183642;23;20012;-93
2022/01/27 00:46:45;;;;;;;57.25;18.20;;;;;;;;;;6184005;23;20240;-93
2022/01/27 00:49:10;;;;;;;52.95;17.67;;;;;;;;;;6184296;23;20012;-93
2022/01/27 00:51:39;;;;;;;49.72;17.88;;;;;;;;;;6184449;23;20005;-92
2022/01/27 00:54:13;;;;;;;48.95;20.15;;;;;;;;;;6183405;23;20096;-93
2022/01/27 00:56:54;;;;;;;53.33;17.63;;;;;;;;;;6183748;23;20009;-92
2022/01/27 00:59:32;;;;;;;42.27;17.67;;;;;;;;;;6183318;23;19997;-93
2022/01/27 01:02:10;;;;;;;54.38;19.80;;;;;;;;;;6183272;23;20083;-92
2022/01/27 01:04:39;;;;;;;58.35;20.65;;;;;;;;;;6182972;23;20012;-92
2022/01/27 01:07:06;;;;;;;54.53;20.20;;;;;;;;;;6207835;23;19986;-93
2022/01/27 01:14:48;;;;;;;58.97;21.77;;;;;;;;;;6184875;23;20017;-93
2022/01/27 01:20:01;;;;;;;60.72;24.00;;;;;;;;;;6185775;23;20649;-93
2022/01/27 01:33:04;;;;;;;98.57;33.78;;;;;;;;;;6207186;23;20052;-92
2022/01/27 01:35:46;;;;;;;91.53;34.50;;;;;;;;;;6182451;23;20390;-93
2022/01/27 01:38:13;;;;;;;84.80;31.95;;;;;;;;;;6182669;23;20001;-92
2022/01/27 01:40:38;;;;;;;92.00;34.00;;;;;;;;;;6183460;23;20083;-93
2022/01/27 01:43:03;;;;;;;98.50;36.28;;;;;;;;;;6183731;23;20040;-92
2022/01/27 01:45:33;;;;;;;105.93;36.42;;;;;;;;;;6184102;23;20012;-92
2022/01/27 01:47:58;;;;;;;98.78;33.80;;;;;;;;;;6182356;23;20008;-92
2022/01/27 01:50:23;;;;;;;108.68;39.15;;;;;;;;;;6183299;23;20845;-92
2022/01/27 01:52:51;;;;;;;119.38;40.05;;;;;;;;;;6183094;23;20115;-92
2022/01/27 01:55:18;;;;;;;122.03;40.30;;;;;;;;;;6182974;23;20398;-92
2022/01/27 01:57:43;;;;;;;146.45;42.13;;;;;;;;;;6183931;23;20169;-92
2022/01/27 02:00:09;;;;;;;116.32;37.60;;;;;;;;;;6184881;23;20005;-92
2022/01/27 02:02:34;;;;;;;121.93;37.05;;;;;;;;;;6195791;23;20004;-92
2022/01/27 02:04:59;;;;;;;142.60;44.30;;;;;;;;;;6188210;23;20033;-92
2022/01/27 02:07:37;;;;;;;129.90;39.58;;;;;;;;;;6183776;23;20024;-92
2022/01/27 02:18:07;;;;;;;108.18;36.85;;;;;;;;;;6187535;23;20364;-93
2022/01/27 02:20:33;;;;;;;122.10;37.92;;;;;;;;;;6189391;23;20373;-93
2022/01/27 02:22:58;;;;;;;130.05;39.53;;;;;;;;;;6189555;23;20027;-93
2022/01/27 02:25:24;;;;;;;120.47;38.97;;;;;;;;;;6191597;23;20092;-93
2022/01/27 02:27:56;;;;;;;113.78;37.80;;;;;;;;;;6189116;23;20323;-93
2022/01/27 02:30:23;;;;;;;117.13;38.65;;;;;;;;;;6188432;23;20476;-93
2022/01/27 02:32:53;;;;;;;139.48;41.53;;;;;;;;;;6198867;23;20015;-93
2022/01/27 02:35:19;;;;;;;122.57;39.90;;;;;;;;;;6192334;23;20087;-93
2022/01/27 02:37:44;;;;;;;145.00;44.58;;;;;;;;;;6188023;23;20001;-93
2022/01/27 02:40:11;;;;;;;123.20;41.35;;;;;;;;;;6187402;23;20087;-93
2022/01/27 02:42:36;;;;;;;153.90;46.25;;;;;;;;;;6187566;23;20005;-92
2022/01/27 02:45:04;;;;;;;148.48;46.60;;;;;;;;;;6188405;23;20076;-93
2022/01/27 02:47:30;;;;;;;184.20;48.63;;;;;;;;;;6187706;23;20591;-93
2022/01/27 02:49:55;;;;;;;136.52;43.95;;;;;;;;;;6183316;23;20032;-93
2022/01/27 02:52:20;;;;;;;136.05;44.33;;;;;;;;;;6183152;23;20068;-93
2022/01/27 02:54:46;;;;;;;138.35;45.50;;;;;;;;;;6183097;23;20001;-94
2022/01/27 02:57:11;;;;;;;145.88;47.22;;;;;;;;;;6160297;23;20012;-94
2022/01/27 02:59:36;;;;;;;137.60;42.53;;;;;;;;;;6185329;23;20028;-94
2022/01/27 03:02:02;;;;;;;175.77;48.00;;;;;;;;;;6185016;23;19993;-93
2022/01/27 03:04:30;;;;;;;138.63;45.03;;;;;;;;;;6188318;23;20228;-94
2022/01/27 03:06:55;;;;;;;164.25;47.67;;;;;;;;;;6187482;23;20012;-94
2022/01/27 03:09:21;;;;;;;124.53;41.97;;;;;;;;;;6188404;23;19997;-94
2022/01/27 03:11:50;;;;;;;151.98;44.95;;;;;;;;;;6187908;23;20354;-94
2022/01/27 03:14:19;;;;;;;112.00;39.72;;;;;;;;;;6187156;23;20005;-94
2022/01/27 03:16:45;;;;;;;143.23;42.42;;;;;;;;;;6185424;23;20003;-94
2022/01/27 03:19:10;;;;;;;118.57;39.00;;;;;;;;;;6185621;23;20037;-94
2022/01/27 03:21:36;;;;;;;144.45;41.10;;;;;;;;;;6186213;23;19997;-94
2022/01/27 03:24:01;;;;;;;169.85;44.47;;;;;;;;;;6186593;23;20033;-94
2022/01/27 03:26:27;;;;;;;152.05;41.80;;;;;;;;;;6186224;23;20008;-94
2022/01/27 03:28:53;;;;;;;145.02;38.35;;;;;;;;;;6185911;23;20008;-94
2022/01/27 03:31:18;;;;;;;131.10;38.25;;;;;;;;;;6197073;23;20032;-93
2022/01/27 03:33:43;;;;;;;159.25;43.42;;;;;;;;;;6189454;23;20498;-94
2022/01/27 03:36:09;;;;;;;164.75;42.80;;;;;;;;;;6184330;23;20325;-93
2022/01/27 03:38:34;;;;;;;113.60;36.92;;;;;;;;;;6189067;23;20005;-94
2022/01/27 03:41:04;;;;;;;147.45;39.33;;;;;;;;;;6189486;23;20000;-94
2022/01/27 03:43:30;;;;;;;119.22;35.92;;;;;;;;;;6190320;23;20021;-94
2022/01/27 03:45:55;;;;;;;140.65;40.80;;;;;;;;;;6189344;23;20008;-94
2022/01/27 03:48:20;;;;;;;150.27;40.47;;;;;;;;;;6162426;23;20076;-93
2022/01/27 03:50:45;;;;;;;163.82;38.92;;;;;;;;;;6186426;23;20418;-93
2022/01/27 03:53:11;;;;;;;146.40;37.75;;;;;;;;;;6161162;23;20005;-93
2022/01/27 03:55:36;;;;;;;128.60;35.65;;;;;;;;;;6191552;23;20009;-93
2022/01/27 03:58:02;;;;;;;149.60;37.60;;;;;;;;;;6185741;23;20449;-93
2022/01/27 04:00:27;;;;;;;148.13;39.38;;;;;;;;;;6184005;23;20504;-93
2022/01/27 04:03:13;;;;;;;144.27;35.55;;;;;;;;;;6182283;23;20008;-93
2022/01/27 04:05:48;;;;;;;130.18;35.25;;;;;;;;;;6184674;23;20028;-93
2022/01/27 04:08:13;;;;;;;126.85;35.10;;;;;;;;;;6182630;23;20045;-93
2022/01/27 04:10:39;;;;;;;130.85;32.97;;;;;;;;;;6184223;23;20401;-93
2022/01/27 04:13:05;;;;;;;109.65;28.10;;;;;;;;;;6182219;23;20020;-93
2022/01/27 04:15:31;;;;;;;94.70;26.52;;;;;;;;;;6181873;23;20005;-93
2022/01/27 04:17:57;;;;;;;130.32;32.60;;;;;;;;;;6183910;23;20422;-93
2022/01/27 04:20:22;;;;;;;114.95;30.05;;;;;;;;;;6183346;23;20005;-93
2022/01/27 04:22:47;;;;;;;113.60;29.48;;;;;;;;;;6185592;23;20326;-93
2022/01/27 04:25:13;;;;;;;105.95;27.45;;;;;;;;;;6191432;23;20349;-93
2022/01/27 04:27:42;;;;;;;89.55;24.63;;;;;;;;;;6182755;23;20460;-93
2022/01/27 04:30:15;;;;;;;102.22;29.02;;;;;;;;;;6182405;23;19997;-93
2022/01/27 04:32:45;;;;;;;90.90;28.08;;;;;;;;;;6182619;23;20009;-93
2022/01/27 04:35:15;;;;;;;92.53;26.60;;;;;;;;;;6188759;23;20001;-94
2022/01/27 04:37:51;;;;;;;110.95;30.70;;;;;;;;;;6187948;23;20067;-94
2022/01/27 04:40:17;;;;;;;112.93;29.55;;;;;;;;;;6187459;23;19996;-94
2022/01/27 04:42:59;;;;;;;119.97;31.48;;;;;;;;;;6187867;23;20016;-94
2022/01/27 04:45:30;;;;;;;87.07;27.73;;;;;;;;;;6187361;23;20001;-93
2022/01/27 04:48:06;;;;;;;117.15;32.30;;;;;;;;;;6186747;23;20429;-94
2022/01/27 04:50:31;;;;;;;107.95;28.58;;;;;;;;;;6187082;23;20000;-93
2022/01/27 04:52:58;;;;;;;97.78;31.90;;;;;;;;;;6185097;23;20094;-93
2022/01/27 04:55:25;;;;;;;130.00;31.95;;;;;;;;;;6184352;23;20009;-94
2022/01/27 04:58:04;;;;;;;112.45;33.83;;;;;;;;;;6195147;23;20008;-94
2022/01/27 05:00:29;;;;;;;129.07;36.65;;;;;;;;;;6189378;23;19997;-94
2022/01/27 05:02:58;;;;;;;135.20;37.00;;;;;;;;;;6193773;23;20052;-94
2022/01/27 05:05:24;;;;;;;115.93;32.28;;;;;;;;;;6197920;23;20005;-94
2022/01/27 05:08:01;;;;;;;133.45;32.42;;;;;;;;;;6195556;23;20080;-94
2022/01/27 05:10:32;;;;;;;132.95;33.67;;;;;;;;;;6204657;23;20007;-95
2022/01/27 05:13:14;;;;;;;84.15;26.48;;;;;;;;;;6203763;23;20410;-95
2022/01/27 05:15:45;;;;;;;134.20;34.42;;;;;;;;;;6205159;23;19997;-94
2022/01/27 05:18:11;;;;;;;88.82;27.52;;;;;;;;;;6206357;23;20013;-95
2022/01/27 05:20:38;;;;;;;111.63;30.02;;;;;;;;;;6203736;23;20016;-94
2022/01/27 05:23:04;;;;;;;95.43;29.10;;;;;;;;;;6203186;23;20012;-94
2022/01/27 05:28:04;;;;;;;120.57;32.05;;;;;;;;;;6206596;23;20017;-95
2022/01/27 05:33:18;;;;;;;109.72;32.22;;;;;;;;;;6180801;23;20013;-95
2022/01/27 05:58:02;;;;;;;147.77;32.75;;;;;;;;;;6175961;23;20021;-95
2022/01/27 06:00:31;;;;;;;121.30;30.05;;;;;;;;;;6205973;23;20013;-94
2022/01/27 06:03:09;;;;;;;125.95;30.23;;;;;;;;;;6207312;23;19993;-94
2022/01/27 06:08:18;;;;;;;113.05;28.50;;;;;;;;;;6205008;23;20028;-95
2022/01/27 06:10:47;;;;;;;130.25;31.10;;;;;;;;;;6208102;23;20081;-95
2022/01/27 06:13:18;;;;;;;126.13;29.92;;;;;;;;;;6180600;23;20036;-95
2022/01/27 06:18:21;;;;;;;121.32;28.45;;;;;;;;;;6204331;23;20092;-95
2022/01/27 06:26:22;;;;;;;148.52;32.30;;;;;;;;;;6205453;22;20021;-95
2022/01/27 18:19:43;;;;;;;43.15;8.20;;;;;;;;;;6172820;23;19939;-92
2022/01/27 18:22:08;;;;;;;46.15;7.10;;;;;;;;;;6187088;23;20127;-93
2022/01/27 18:24:33;;;;;;;41.55;8.20;;;;;;;;;;6185464;23;20052;-93
2022/01/27 18:26:59;;;;;;;36.70;7.28;;;;;;;;;;6185542;23;20028;-93
2022/01/27 18:29:25;;;;;;;34.95;6.40;;;;;;;;;;6188309;23;20023;-93
2022/01/27 18:31:50;;;;;;;47.58;8.45;;;;;;;;;;6177102;23;20000;-93
2022/01/27 18:34:16;;;;;;;41.88;8.18;;;;;;;;;;6189006;23;20011;-93
2022/01/27 18:36:43;;;;;;;40.53;7.93;;;;;;;;;;6191161;23;20001;-94
2022/01/27 18:39:09;;;;;;;42.97;7.45;;;;;;;;;;6190590;23;20001;-93
2022/01/27 18:41:35;;;;;;;36.90;7.47;;;;;;;;;;6192173;23;20008;-93
2022/01/27 18:44:05;;;;;;;31.15;6.97;;;;;;;;;;6192179;23;20001;-94
2022/01/27 18:46:32;;;;;;;36.78;6.40;;;;;;;;;;6192928;23;20008;-93
2022/01/27 18:49:03;;;;;;;49.33;8.88;;;;;;;;;;6192497;23;20001;-93
2022/01/27 18:51:31;;;;;;;35.38;6.93;;;;;;;;;;6193582;23;20095;-93
2022/01/27 18:54:02;;;;;;;48.63;7.50;;;;;;;;;;6194715;23;20745;-94
2022/01/27 18:56:31;;;;;;;48.42;8.60;;;;;;;;;;6191127;23;20007;-93
2022/01/27 18:58:56;;;;;;;35.60;6.60;;;;;;;;;;6192441;22;20052;-93
2022/01/27 19:01:22;;;;;;;37.53;6.65;;;;;;;;;;6195122;23;20016;-93
2022/01/27 19:03:50;;;;;;;36.72;6.32;;;;;;;;;;6190135;23;20005;-93
2022/01/27 19:06:19;;;;;;;38.67;6.00;;;;;;;;;;6189801;23;20091;-93
2022/01/27 19:08:44;;;;;;;35.67;7.30;;;;;;;;;;6188557;23;20005;-93
2022/01/27 19:11:10;;;;;;;35.83;6.05;;;;;;;;;;6187679;23;20040;-93
2022/01/27 19:13:35;;;;;;;35.78;7.07;;;;;;;;;;6190942;23;20037;-93
2022/01/27 19:16:01;;;;;;;34.80;6.72;;;;;;;;;;6187345;23;20001;-94
2022/01/27 19:18:26;;;;;;;40.33;6.93;;;;;;;;;;6187024;23;20001;-93
2022/01/27 19:20:53;;;;;;;37.53;6.28;;;;;;;;;;6188203;23;20031;-94
2022/01/27 19:23:22;;;;;;;31.73;6.60;;;;;;;;;;6189569;23;20008;-93
2022/01/27 19:25:53;;;;;;;45.53;8.30;;;;;;;;;;6195022;23;20027;-94
2022/01/27 19:28:19;;;;;;;42.28;8.23;;;;;;;;;;6192429;23;20350;-95
2022/01/27 19:30:47;;;;;;;34.65;6.75;;;;;;;;;;6189084;23;20007;-95
2022/01/27 19:33:17;;;;;;;30.92;7.35;;;;;;;;;;6194503;23;20395;-95
2022/01/27 19:35:48;;;;;;;40.20;6.30;;;;;;;;;;6193557;23;20001;-96
2022/01/27 19:38:20;;;;;;;38.42;6.57;;;;;;;;;;6190409;23;20040;-95
2022/01/27 19:40:49;;;;;;;38.90;7.65;;;;;;;;;;6195682;23;20009;-95
2022/01/27 19:45:56;;;;;;;52.50;7.78;;;;;;;;;;6197228;23;20021;-95
2022/01/27 23:20:28;;;;;;;81.88;10.30;;;;;;;;;;6164625;23;20040;-94
2022/01/27 23:23:06;;;;;;;40.50;7.20;;;;;;;;;;6108420;23;20022;-93
2022/01/27 23:25:41;;;;;;;27.42;6.18;;;;;;;;;;6150388;23;20040;-93
2022/01/27 23:28:19;;;;;;;65.82;8.57;;;;;;;;;;6134274;23;20029;-94
2022/01/27 23:30:53;;;;;;;36.60;6.78;;;;;;;;;;6159594;23;20014;-93
2022/01/27 23:33:20;;;;;;;39.65;6.20;;;;;;;;;;6158024;23;20014;-93
2022/01/27 23:35:55;;;;;;;35.40;6.45;;;;;;;;;;6133464;23;20029;-93
2022/01/27 23:38:46;;;;;;;37.85;7.40;;;;;;;;;;6130658;23;20033;-94
2022/01/27 23:41:15;;;;;;;28.30;6.75;;;;;;;;;;6136165;23;20241;-93
2022/01/27 23:46:36;;;;;;;38.80;7.03;;;;;;;;;;6142502;23;20010;-94
2022/01/27 23:52:25;;;;;;;29.35;6.22;;;;;;;;;;6142125;23;19998;-93
2022/01/27 23:57:15;;;;;;;49.20;6.50;;;;;;;;;;6132642;23;20006;-94
